Time;durP1;ratioP1;P1;durP2;ratioP2;P2;SDS_P1;SDS_P2;PMS_P1;PMS_P2;Temp;Humidity;BMP_temperature;BMP_pressure;BME280_temperature;BME280_humidity;BME280_pressure;Samples;Min_cycle;Max_cycle;Signal;HPM_P1;HPM_P2
2024/03/18 00:01:03;;;;;;;;;21.00;21.00;;;;;3.66;86.37;99669.97;6272730;20;3575290;-49
2024/03/18 00:03:30;;;;;;;;;19.50;17.00;;;;;3.68;86.91;99668.09;6307880;20;2825262;-45
2024/03/18 00:05:57;;;;;;;;;19.00;16.00;;;;;3.66;88.70;99659.34;6275920;20;2814963;-48
2024/03/18 00:08:25;;;;;;;;;25.00;24.67;;;;;3.86;86.73;99660.44;6273270;20;3578395;-49
2024/03/18 00:10:52;;;;;;;;;29.00;21.00;;;;;3.77;87.05;99663.44;6270888;20;2500437;-48
2024/03/18 00:13:18;;;;;;;;;24.00;19.50;;;;;3.87;86.71;99667.47;6272129;20;2498298;-47
2024/03/18 00:15:46;;;;;;;;;23.67;20.00;;;;;3.88;86.01;99664.78;6270215;20;3556551;-49
2024/03/18 00:18:14;;;;;;;;;16.00;15.00;;;;;4.01;84.78;99659.91;6270259;20;3543054;-48
2024/03/18 00:20:40;;;;;;;;;19.50;15.00;;;;;3.94;84.99;99647.75;6306254;20;2821129;-48
2024/03/18 00:23:08;;;;;;;;;17.33;16.00;;;;;4.09;83.65;99647.22;6273562;20;3558713;-49
2024/03/18 00:25:35;;;;;;;;;15.00;14.00;;;;;4.34;82.17;99641.00;6298301;20;3547240;-48
2024/03/18 00:28:02;;;;;;;;;15.00;12.00;;;;;4.43;80.44;99642.47;6306557;20;2814923;-50
2024/03/18 00:30:29;;;;;;;;;17.00;14.67;;;;;4.45;80.32;99641.50;6274247;20;3554484;-49
2024/03/18 00:32:57;;;;;;;;;21.00;18.67;;;;;4.39;80.60;99644.34;6303424;20;3556551;-50
2024/03/18 00:35:25;;;;;;;;;21.33;20.00;;;;;4.34;80.52;99646.31;6301037;20;3555452;-48
2024/03/18 00:37:51;;;;;;;;;28.00;24.50;;;;;4.41;80.47;99639.84;6268344;20;2500353;-48
2024/03/18 00:40:18;;;;;;;;;30.50;21.00;;;;;4.28;81.15;99635.91;6269563;20;2500318;-49
2024/03/18 00:42:47;;;;;;;;;31.50;28.50;;;;;4.12;82.38;99625.84;6271789;20;2861992;-46
2024/03/18 00:45:16;;;;;;;;;37.00;32.00;;;;;4.17;81.55;99637.19;6270678;20;2855488;-49
2024/03/18 00:47:42;;;;;;;;;31.50;29.00;;;;;4.26;82.10;99637.75;6269792;20;2500312;-46
2024/03/18 00:50:11;;;;;;;;;34.00;25.50;;;;;3.93;83.66;99632.75;6271593;20;2853471;-45
2024/03/18 00:52:41;;;;;;;;;28.00;25.00;;;;;4.09;83.37;99636.59;6270216;20;2500326;-47
2024/03/18 00:55:10;;;;;;;;;16.67;16.67;;;;;4.06;84.06;99636.72;6271527;20;3543087;-47
2024/03/18 00:57:39;;;;;;;;;17.60;11.80;;;;;4.20;82.05;99627.38;6326307;20;2829491;-46
2024/03/18 01:00:11;;;;;;;;;13.00;11.00;;;;;4.05;82.68;99628.78;6271219;20;2803376;-45
2024/03/18 01:02:39;;;;;;;;;20.00;16.00;;;;;4.06;82.98;99626.09;6272021;20;3562794;-46
2024/03/18 01:05:09;;;;;;;;;23.33;20.33;;;;;4.01;83.11;99630.69;6299396;20;3563920;-46
2024/03/18 01:07:37;;;;;;;;;21.67;19.67;;;;;4.10;82.04;99627.69;6272716;20;3555479;-46
2024/03/18 01:10:06;;;;;;;;;25.33;17.67;;;;;4.23;81.93;99625.44;6272434;20;3560671;-48
2024/03/18 01:12:34;;;;;;;;;19.33;17.67;;;;;4.36;80.91;99623.22;6301664;20;3560676;-45
2024/03/18 01:15:01;;;;;;;;;21.00;15.00;;;;;4.14;80.50;99620.50;6274634;20;2709690;-46
2024/03/18 01:17:28;;;;;;;;;15.33;12.00;;;;;4.15;83.42;99627.53;6269901;20;3552376;-45
2024/03/18 01:19:57;;;;;;;;;15.40;14.20;;;;;3.80;84.17;99634.09;6325505;20;2816894;-48
2024/03/18 01:22:25;;;;;;;;;13.00;11.40;;;;;3.98;84.00;99633.47;6295424;20;2802332;-47
2024/03/18 01:24:53;;;;;;;;;17.67;15.00;;;;;3.44;85.71;99637.06;6269291;20;3542981;-49
2024/03/18 01:27:20;;;;;;;;;20.00;18.67;;;;;2.97;90.15;99636.81;6302882;20;3558600;-46
2024/03/18 01:29:49;;;;;;;;;21.50;16.50;;;;;2.52;93.45;99634.66;6270759;20;2829604;-49
2024/03/18 01:32:16;;;;;;;;;14.00;14.00;;;;;2.41;96.10;99630.53;6273095;20;2789854;-47
2024/03/18 01:34:43;;;;;;;;;13.50;11.00;;;;;2.99;94.12;99635.84;6269845;20;2780524;-50
2024/03/18 01:37:10;;;;;;;;;15.33;14.00;;;;;2.57;95.68;99638.03;6271560;20;3549247;-46
2024/03/18 01:39:37;;;;;;;;;11.00;11.00;;;;;2.85;94.16;99635.44;6299908;20;2778411;-49
2024/03/18 01:42:05;;;;;;;;;14.60;14.60;;;;;2.85;92.24;99633.66;6296635;20;2811867;-48
2024/03/18 01:44:32;;;;;;;;;12.50;11.00;;;;;2.72;93.70;99632.28;6269460;20;2781586;-50
2024/03/18 01:46:59;;;;;;;;;17.00;10.00;;;;;2.92;90.96;99630.78;6273088;20;2789918;-48
2024/03/18 01:49:25;;;;;;;;;13.00;10.00;;;;;2.69;91.34;99643.00;6270461;20;2793998;-46
2024/03/18 01:51:52;;;;;;;;;12.00;9.00;;;;;2.76;91.82;99644.50;6270833;20;2771109;-48
2024/03/18 01:54:19;;;;;;;;;15.00;11.00;;;;;2.75;90.59;99645.44;6270430;20;2800318;-47
2024/03/18 01:56:45;;;;;;;;;12.00;12.00;;;;;2.40;92.56;99643.84;6270990;20;2800244;-47
2024/03/18 01:59:12;;;;;;;;;13.50;10.00;;;;;2.30;96.69;99639.72;6264888;20;2799244;-50
2024/03/18 02:01:40;;;;;;;;;10.80;10.80;;;;;2.60;94.70;99637.94;6295848;20;2789850;-51
2024/03/18 02:04:09;;;;;;;;;12.00;10.50;;;;;2.72;94.82;99645.53;6269673;20;2783632;-52
2024/03/18 02:06:38;;;;;;;;;14.00;13.00;;;;;2.92;94.17;99649.34;6270349;20;2806552;-52
2024/03/18 02:09:07;;;;;;;;;16.40;13.40;;;;;2.82;95.25;99643.50;6293513;20;2816961;-51
2024/03/18 02:11:35;;;;;;;;;18.33;14.33;;;;;2.33;97.09;99645.78;6274459;20;3549353;-52
2024/03/18 02:14:03;;;;;;;;;9.75;7.00;;;;;2.40;97.02;99643.84;6324270;20;1818028;-49
2024/03/18 02:16:30;;;;;;;;;22.67;18.00;;;;;2.62;96.31;99644.09;6307082;20;3546248;-51
2024/03/18 02:18:58;;;;;;;;;17.33;16.00;;;;;2.51;98.54;99639.09;6305400;20;3560768;-50
2024/03/18 02:21:25;;;;;;;;;17.00;15.00;;;;;2.63;98.80;99637.84;6306500;20;2816264;-53
2024/03/18 02:23:53;;;;;;;;;21.33;18.00;;;;;2.69;97.20;99636.81;6275456;20;3569096;-48
2024/03/18 02:26:20;;;;;;;;;22.33;20.67;;;;;2.61;96.08;99634.41;6304652;20;3561726;-49
2024/03/18 02:28:48;;;;;;;;;17.33;16.00;;;;;2.58;96.38;99639.78;6272734;20;3556564;-49
2024/03/18 02:31:15;;;;;;;;;24.00;17.00;;;;;2.70;96.07;99639.41;6307440;20;2825361;-49
2024/03/18 02:33:42;;;;;;;;;18.50;14.50;;;;;2.77;93.15;99632.16;6276092;20;2808311;-50
2024/03/18 02:36:09;;;;;;;;;17.67;14.33;;;;;2.27;94.48;99638.03;6274248;20;3547264;-49
2024/03/18 02:38:37;;;;;;;;;15.00;12.00;;;;;2.57;94.23;99636.25;6319988;20;1827476;-47
2024/03/18 02:41:05;;;;;;;;;18.50;17.50;;;;;2.55;94.67;99630.13;6326919;20;2839898;-47
2024/03/18 02:43:33;;;;;;;;;18.00;13.00;;;;;2.59;94.77;99628.28;6305228;20;2799265;-46
2024/03/18 02:45:59;;;;;;;;;17.00;13.00;;;;;2.85;92.69;99619.53;6271689;20;2816962;-46
2024/03/18 02:48:30;;;;;;;;;14.80;13.60;;;;;2.59;94.01;99621.19;6299855;20;2794200;-46
2024/03/18 02:50:57;;;;;;;;;17.50;13.00;;;;;2.39;95.69;99613.81;6273358;20;2827386;-46
2024/03/18 02:53:25;;;;;;;;;20.33;18.00;;;;;2.61;94.59;99619.38;6275001;20;2812001;-47
2024/03/18 02:55:54;;;;;;;;;20.00;18.00;;;;;2.84;91.89;99618.66;6304406;20;3552795;-45
2024/03/18 02:58:21;;;;;;;;;16.50;14.00;;;;;2.78;90.84;99618.84;6276054;20;2821144;-52
2024/03/18 03:00:47;;;;;;;;;14.00;14.00;;;;;2.70;92.06;99618.22;6276245;20;2689913;-48
2024/03/18 03:03:15;;;;;;;;;11.00;11.00;;;;;2.90;91.27;99614.06;6274244;20;3425256;-47
2024/03/18 03:05:45;;;;;;;;;16.83;15.33;;;;;3.15;88.33;99617.66;6326890;20;2831597;-48
2024/03/18 03:08:12;;;;;;;;;13.50;13.00;;;;;3.33;85.01;99607.38;6306241;20;2809821;-47
2024/03/18 03:10:39;;;;;;;;;37.50;35.00;;;;;3.24;86.45;99612.09;6277479;20;2854594;-45
2024/03/18 03:13:06;;;;;;;;;27.00;27.00;;;;;2.97;87.38;99605.00;6274069;20;2500314;-49
2024/03/18 03:15:36;;;;;;;;;21.00;21.00;;;;;3.30;84.79;99603.91;6275148;20;2826327;-48
2024/03/18 03:18:03;;;;;;;;;26.00;22.00;;;;;3.28;85.84;99605.75;6272957;20;2498203;-47
2024/03/18 03:20:33;;;;;;;;;22.00;18.00;;;;;3.15;86.47;99600.91;6275369;20;2819094;-47
2024/03/18 03:22:59;;;;;;;;;21.50;18.00;;;;;3.07;87.58;99601.13;6271216;20;2823230;-47
2024/03/18 03:25:27;;;;;;;;;15.67;12.33;;;;;3.32;85.16;99601.22;6270241;20;3525331;-50
2024/03/18 03:27:58;;;;;;;;;11.00;11.00;;;;;3.28;85.26;99597.78;6303768;20;2788894;-47
2024/03/18 03:30:25;;;;;;;;;14.00;13.00;;;;;3.06;86.94;99596.75;6274946;20;2783718;-46
2024/03/18 03:32:52;;;;;;;;;10.50;10.50;;;;;3.19;86.24;99594.59;6292086;20;1804187;-50
2024/03/18 03:35:19;;;;;;;;;11.00;9.50;;;;;3.22;86.57;99594.47;6302082;20;2772236;-47
2024/03/18 03:37:46;;;;;;;;;13.00;11.00;;;;;3.15;87.70;99595.59;6271812;20;2794039;-49
2024/03/18 03:40:13;;;;;;;;;13.00;10.50;;;;;3.23;85.14;99590.91;6274047;20;2785694;-46
2024/03/18 03:42:40;;;;;;;;;15.00;12.00;;;;;3.32;85.41;99592.38;6270665;20;2800361;-48
2024/03/18 03:45:08;;;;;;;;;12.33;12.33;;;;;3.33;85.34;99594.13;6274495;20;2809897;-48
2024/03/18 03:47:36;;;;;;;;;15.00;13.33;;;;;3.48;83.72;99588.28;6303468;20;2806835;-46
2024/03/18 03:50:04;;;;;;;;;17.33;17.33;;;;;3.17;85.97;99591.97;6305090;20;3553465;-48
2024/03/18 03:52:32;;;;;;;;;16.67;13.33;;;;;3.13;85.79;99582.38;6303808;20;3552973;-50
2024/03/18 03:54:59;;;;;;;;;11.00;11.00;;;;;3.33;84.11;99587.03;6303614;20;2787997;-47
2024/03/18 03:57:27;;;;;;;;;14.00;10.00;;;;;3.30;84.24;99587.97;6299828;20;2785869;-45
2024/03/18 03:59:54;;;;;;;;;9.50;9.50;;;;;3.23;84.53;99591.75;6271835;20;2773197;-47
2024/03/18 04:02:20;;;;;;;;;10.50;10.00;;;;;3.23;83.95;99591.75;6270689;20;2784661;-47
2024/03/18 04:04:47;;;;;;;;;15.00;12.00;;;;;3.31;84.74;99588.84;6268548;20;2791967;-46
2024/03/18 04:07:20;;;;;;;;;14.40;10.00;;;;;3.26;85.30;99596.09;6297508;20;2769026;-46
2024/03/18 04:09:47;;;;;;;;;13.50;11.00;;;;;3.37;84.19;99590.44;6273538;20;2790910;-46
2024/03/18 04:12:14;;;;;;;;;10.00;9.25;;;;;3.48;83.52;99596.25;6293770;20;1815003;-48
2024/03/18 04:14:40;;;;;;;;;9.00;9.00;;;;;3.40;83.60;99593.00;6303926;20;2727384;-46
2024/03/18 04:17:10;;;;;;;;;23.67;22.67;;;;;3.29;83.58;99599.53;6302882;20;3573339;-45
2024/03/18 04:19:40;;;;;;;;;22.00;16.00;;;;;3.03;87.11;99595.06;6274745;20;2810705;-46
2024/03/18 04:22:07;;;;;;;;;22.67;19.00;;;;;2.86;88.46;99598.25;6274530;20;3564832;-45
2024/03/18 04:24:34;;;;;;;;;17.50;17.50;;;;;2.76;91.39;99595.94;6306748;20;2821109;-48
2024/03/18 04:27:01;;;;;;;;;21.67;19.67;;;;;2.55;93.15;99597.47;6271449;20;3554465;-48
2024/03/18 04:29:29;;;;;;;;;24.67;20.33;;;;;2.47;93.00;99602.13;6305511;20;3553417;-48
2024/03/18 04:31:56;;;;;;;;;27.00;23.00;;;;;2.86;91.64;99606.19;6272418;20;2835724;-45
2024/03/18 04:34:24;;;;;;;;;19.50;19.50;;;;;2.87;90.21;99609.75;6271719;20;2821116;-47
2024/03/18 04:36:52;;;;;;;;;27.33;24.00;;;;;2.46;91.78;99608.34;6271895;20;3572187;-46
2024/03/18 04:39:19;;;;;;;;;33.00;27.67;;;;;2.42;92.40;99618.16;6272561;20;3593025;-48
2024/03/18 04:41:47;;;;;;;;;39.00;28.00;;;;;2.72;92.06;99611.09;6272268;20;2867063;-46
2024/03/18 04:44:14;;;;;;;;;35.00;30.00;;;;;2.36;92.67;99611.25;6268998;20;2500266;-47
2024/03/18 04:46:41;;;;;;;;;37.50;34.00;;;;;2.67;92.29;99612.16;6273154;20;2853430;-45
2024/03/18 04:49:08;;;;;;;;;39.50;33.50;;;;;2.60;94.22;99612.31;6269157;20;2500341;-47
2024/03/18 04:51:35;;;;;;;;;34.50;30.00;;;;;2.49;93.05;99617.06;6273400;20;2851324;-48
2024/03/18 04:54:02;;;;;;;;;18.00;17.00;;;;;2.60;94.73;99617.59;6273037;20;2826465;-47
2024/03/18 04:56:31;;;;;;;;;18.00;17.00;;;;;2.47;93.73;99620.69;6271574;20;3550342;-49
2024/03/18 04:59:00;;;;;;;;;17.80;13.20;;;;;2.53;94.26;99628.47;6328214;20;2819062;-48
2024/03/18 05:01:27;;;;;;;;;19.67;14.33;;;;;2.62;94.80;99630.81;6273072;20;3554413;-47
2024/03/18 05:03:56;;;;;;;;;13.00;12.80;;;;;2.52;95.70;99624.06;6326522;20;2797176;-48
2024/03/18 05:06:23;;;;;;;;;14.67;14.67;;;;;2.49;98.46;99629.47;6275098;20;3552327;-49
2024/03/18 05:08:51;;;;;;;;;23.67;21.33;;;;;2.76;95.68;99625.97;6302765;20;3556987;-48
2024/03/18 05:11:18;;;;;;;;;29.33;24.33;;;;;2.65;95.09;99633.38;6304085;20;3586738;-51
2024/03/18 05:13:46;;;;;;;;;27.00;25.00;;;;;2.73;93.98;99635.81;6271892;20;2840930;-52
2024/03/18 05:16:13;;;;;;;;;29.50;25.00;;;;;2.51;95.58;99633.81;6272469;20;2844018;-48
2024/03/18 05:18:40;;;;;;;;;25.00;24.50;;;;;2.57;96.36;99632.75;6274380;20;2833631;-51
2024/03/18 05:21:07;;;;;;;;;29.00;23.00;;;;;2.82;94.02;99638.19;6269831;20;3586716;-46
2024/03/18 05:23:34;;;;;;;;;25.00;22.00;;;;;3.15;92.84;99636.25;6269809;20;2500443;-48
2024/03/18 05:26:01;;;;;;;;;29.00;23.00;;;;;3.18;93.02;99636.13;6272084;20;2831532;-50
2024/03/18 05:28:28;;;;;;;;;32.33;23.67;;;;;3.19;93.14;99637.91;6272595;20;3594158;-46
2024/03/18 05:30:56;;;;;;;;;32.00;26.00;;;;;3.72;91.46;99637.03;6271042;20;2850289;-51
2024/03/18 05:33:23;;;;;;;;;33.00;27.00;;;;;3.72;90.55;99637.03;6271839;20;2849267;-49
2024/03/18 05:35:51;;;;;;;;;31.00;22.50;;;;;4.15;88.77;99635.50;6270188;20;2846136;-53
2024/03/18 05:38:19;;;;;;;;;24.50;21.00;;;;;4.93;81.83;99645.84;6271616;20;2836127;-48
2024/03/18 05:40:47;;;;;;;;;27.50;25.00;;;;;5.46;77.18;99641.97;6271593;20;2849230;-54
2024/03/18 05:43:14;;;;;;;;;34.00;31.50;;;;;5.14;79.64;99651.25;6271890;20;2858616;-47
2024/03/18 05:45:42;;;;;;;;;33.50;30.00;;;;;5.37;75.76;99653.88;6269439;20;2850288;-48
2024/03/18 05:48:11;;;;;;;;;18.50;17.50;;;;;5.75;73.03;99646.06;6278525;20;2821154;-51
2024/03/18 05:50:38;;;;;;;;;28.00;22.00;;;;;5.44;75.31;99647.34;6273937;20;2491958;-48
2024/03/18 05:53:06;;;;;;;;;35.50;30.50;;;;;5.71;73.70;99652.44;6275127;20;2851437;-49
2024/03/18 05:55:34;;;;;;;;;57.67;41.33;;;;;6.18;68.83;99654.03;6273686;20;2877394;-47
2024/03/18 05:58:03;;;;;;;;;44.67;35.67;;;;;6.76;67.61;99652.25;6308354;20;2876560;-48
2024/03/18 06:00:32;;;;;;;;;32.33;27.67;;;;;7.43;64.60;99653.50;6304085;20;2848256;-48
2024/03/18 06:02:59;;;;;;;;;26.50;26.50;;;;;7.66;63.45;99638.13;6307596;20;2841984;-49
2024/03/18 06:05:26;;;;;;;;;19.00;18.00;;;;;9.80;56.96;99646.97;6277878;20;2829435;-49
2024/03/18 06:07:53;;;;;;;;;24.50;24.50;;;;;10.96;51.86;99654.25;6276152;20;2848194;-47
2024/03/18 06:10:21;;;;;;;;;23.00;21.00;;;;;10.83;52.49;99653.28;6277449;20;2841068;-51
2024/03/18 06:12:49;;;;;;;;;13.50;10.00;;;;;9.99;52.42;99648.56;6276815;20;2794049;-47
2024/03/18 06:15:15;;;;;;;;;18.50;15.00;;;;;8.63;57.72;99641.13;6276259;20;2821257;-47
2024/03/18 06:17:42;;;;;;;;;16.00;15.00;;;;;7.99;60.42;99640.03;6276894;20;2827371;-48
2024/03/18 06:20:11;;;;;;;;;13.00;12.50;;;;;9.10;58.56;99645.69;6280582;20;2781661;-50
2024/03/18 06:22:38;;;;;;;;;18.00;17.00;;;;;7.95;60.25;99633.97;6274732;20;2496143;-52
2024/03/18 06:27:55;;;;;;;;;23.00;17.33;;;;;7.88;60.24;99632.56;6275830;20;3573163;-49
2024/03/18 06:30:22;;;;;;;;;21.50;20.50;;;;;8.16;59.60;99626.63;6275008;20;2491958;-47
2024/03/18 06:32:50;;;;;;;;;23.00;20.00;;;;;7.90;62.10;99636.91;6274571;20;3577343;-49
2024/03/18 06:35:18;;;;;;;;;59.67;45.33;;;;;8.24;59.94;99629.78;6276374;20;3622279;-50
2024/03/18 06:37:46;;;;;;;;;41.67;34.00;;;;;8.63;58.78;99631.28;6309696;20;3621044;-50
2024/03/18 06:40:13;;;;;;;;;27.00;21.00;;;;;9.21;57.19;99632.53;6276178;20;2838823;-47
2024/03/18 06:42:41;;;;;;;;;13.67;12.67;;;;;8.72;59.15;99624.59;6275311;20;3532619;-49
2024/03/18 06:45:09;;;;;;;;;9.50;8.00;;;;;9.40;54.88;99626.97;6307593;20;2759746;-48
2024/03/18 06:47:37;;;;;;;;;11.60;9.40;;;;;9.16;56.03;99619.44;6299432;20;2785700;-46
2024/03/18 06:50:06;;;;;;;;;9.60;9.60;;;;;9.64;54.75;99616.66;6302373;20;2761791;-49
2024/03/18 06:52:34;;;;;;;;;7.00;7.00;;;;;9.81;53.06;99611.16;6293930;20;1804679;-47
2024/03/18 06:55:03;;;;;;;;;11.40;9.80;;;;;10.04;51.92;99614.28;6329158;20;2765909;-49
2024/03/18 06:57:30;;;;;;;;;10.00;10.00;;;;;10.10;51.27;99617.44;6274229;20;2788826;-46
2024/03/18 07:00:02;;;;;;;;;7.00;7.00;;;;;10.22;50.32;99609.63;6316651;20;2461741;-47
2024/03/18 07:02:30;;;;;;;;;11.00;11.00;;;;;10.31;50.32;99609.94;6304688;20;3528404;-49
2024/03/18 07:04:57;;;;;;;;;7.00;7.00;;;;;10.19;50.58;99608.00;6308668;20;2728421;-45
2024/03/18 07:07:24;;;;;;;;;7.00;6.50;;;;;9.80;50.43;99609.44;6276563;20;2737776;-49
2024/03/18 07:09:50;;;;;;;;;6.50;6.50;;;;;10.25;47.93;99607.59;6281646;20;2741952;-49
2024/03/18 07:12:18;;;;;;;;;9.00;7.00;;;;;10.79;47.14;99615.00;6277175;20;2731538;-48
2024/03/18 07:14:47;;;;;;;;;6.00;6.00;;;;;10.16;47.44;99608.16;6278286;20;2737831;-46
2024/03/18 07:17:14;;;;;;;;;6.50;6.50;;;;;10.59;47.82;99610.06;6278367;20;2734687;-47
2024/03/18 07:19:41;;;;;;;;;9.00;6.00;;;;;9.75;49.24;99606.16;6280325;20;2750751;-45
2024/03/18 07:22:09;;;;;;;;;8.00;5.50;;;;;10.81;46.75;99610.41;6278730;20;2739069;-45
2024/03/18 07:24:37;;;;;;;;;14.33;11.33;;;;;11.03;46.08;99607.19;6273286;20;3513806;-44
2024/03/18 07:27:05;;;;;;;;;17.67;15.33;;;;;10.91;44.10;99616.06;6307760;20;3542964;-45
2024/03/18 07:29:31;;;;;;;;;8.50;5.50;;;;;10.90;43.37;99600.88;6309721;20;2742528;-45
2024/03/18 07:31:59;;;;;;;;;14.00;13.33;;;;;10.20;43.73;99600.81;6274916;20;3531639;-47
2024/03/18 07:34:26;;;;;;;;;22.00;15.00;;;;;10.61;43.71;99609.00;6276859;20;2834654;-45
2024/03/18 07:36:52;;;;;;;;;11.00;6.00;;;;;10.65;43.89;99607.84;6277826;20;2764866;-46
2024/03/18 07:39:20;;;;;;;;;6.00;6.00;;;;;10.96;43.63;99612.13;6283110;20;2744053;-45
2024/03/18 07:41:47;;;;;;;;;4.00;4.00;;;;;10.23;43.38;99612.19;6277328;20;2745094;-46
2024/03/18 07:44:13;;;;;;;;;8.00;6.00;;;;;10.54;44.18;99610.34;6277015;20;2736731;-46
2024/03/18 07:46:40;;;;;;;;;6.00;6.00;;;;;10.53;44.37;99614.84;6276802;20;2737836;-49
2024/03/18 07:49:06;;;;;;;;;7.00;7.00;;;;;10.69;43.88;99616.53;6277690;20;2739862;-46
2024/03/18 07:51:33;;;;;;;;;8.50;8.50;;;;;11.10;42.54;99611.22;6275804;20;2737815;-46
2024/03/18 07:54:00;;;;;;;;;5.00;5.00;;;;;11.05;43.87;99605.28;6280510;20;2738859;-47
2024/03/18 07:56:27;;;;;;;;;7.00;6.00;;;;;10.88;43.83;99608.19;6280113;20;2733618;-47
2024/03/18 07:58:53;;;;;;;;;9.00;7.00;;;;;10.55;43.69;99612.06;6278980;20;2731537;-47
2024/03/18 08:01:20;;;;;;;;;7.00;6.00;;;;;10.88;43.23;99610.91;6277734;20;2741968;-46
2024/03/18 08:03:46;;;;;;;;;6.00;6.00;;;;;10.47;44.76;99603.63;6277160;20;2746121;-48
2024/03/18 08:06:13;;;;;;;;;8.00;5.00;;;;;10.90;44.37;99600.88;6277375;20;2741025;-48
2024/03/18 08:08:40;;;;;;;;;8.00;6.00;;;;;10.65;43.89;99607.84;6277233;20;2743052;-46
2024/03/18 08:11:10;;;;;;;;;6.00;6.00;;;;;10.00;44.52;99600.19;6320513;20;1795896;-46
2024/03/18 08:13:36;;;;;;;;;10.00;6.00;;;;;10.22;45.31;99594.38;6307589;20;2761784;-45
2024/03/18 08:16:04;;;;;;;;;6.50;6.50;;;;;10.73;44.05;99594.78;6278669;20;2737801;-48
2024/03/18 08:18:31;;;;;;;;;8.50;7.00;;;;;10.63;44.28;99593.63;6277962;20;2735748;-46
2024/03/18 08:20:57;;;;;;;;;10.00;7.00;;;;;11.40;44.40;99597.59;6277171;20;2753414;-47
2024/03/18 08:23:24;;;;;;;;;4.50;4.50;;;;;11.52;42.78;99593.22;6277640;20;2743005;-48
2024/03/18 08:25:50;;;;;;;;;8.50;8.00;;;;;11.63;43.94;99585.28;6278028;20;2754485;-47
2024/03/18 08:28:17;;;;;;;;;7.50;7.00;;;;;11.63;42.90;99589.81;6274639;20;2742089;-50
2024/03/18 08:30:44;;;;;;;;;6.75;6.00;;;;;11.27;42.96;99590.44;6297458;20;1814099;-45
2024/03/18 08:33:11;;;;;;;;;6.00;6.00;;;;;10.01;44.64;99595.69;6308726;20;2746152;-48
2024/03/18 08:35:37;;;;;;;;;7.50;6.50;;;;;10.74;44.07;99591.16;6276926;20;2742995;-48
2024/03/18 08:38:05;;;;;;;;;6.00;6.00;;;;;10.99;42.86;99581.50;6276090;20;2737791;-48
2024/03/18 08:40:32;;;;;;;;;6.00;6.00;;;;;10.22;43.69;99580.97;6277972;20;2740956;-47
2024/03/18 08:43:00;;;;;;;;;11.40;6.20;;;;;10.37;45.79;99568.44;6299208;20;2765076;-48
2024/03/18 08:45:27;;;;;;;;;6.50;6.50;;;;;11.55;43.89;99574.19;6276477;20;2736772;-46
2024/03/18 08:47:57;;;;;;;;;7.00;6.14;;;;;11.54;41.72;99567.09;6319242;20;1795555;-47
2024/03/18 08:50:23;;;;;;;;;5.00;5.00;;;;;11.85;41.83;99576.63;6310067;20;2738832;-47
2024/03/18 08:52:50;;;;;;;;;5.00;5.00;;;;;11.92;42.48;99571.72;6276893;20;2745113;-48
2024/03/18 08:55:20;;;;;;;;;6.20;6.20;;;;;11.81;41.51;99563.50;6311861;20;2469035;-47
2024/03/18 08:57:47;;;;;;;;;8.00;6.00;;;;;11.77;41.99;99567.34;6309476;20;2733622;-49
2024/03/18 09:00:15;;;;;;;;;7.00;6.00;;;;;11.42;42.30;99570.59;6277948;20;2736746;-47
2024/03/18 09:02:42;;;;;;;;;8.00;6.00;;;;;11.23;42.43;99567.44;6274535;20;2742127;-49
2024/03/18 09:05:08;;;;;;;;;7.50;6.00;;;;;11.44;41.57;99568.69;6276578;20;2735702;-47
2024/03/18 09:07:35;;;;;;;;;9.00;6.00;;;;;10.95;42.22;99562.03;6277816;20;2741015;-51
2024/03/18 09:10:02;;;;;;;;;7.00;6.00;;;;;12.14;42.57;99551.38;6278119;20;2733215;-48
2024/03/18 09:12:28;;;;;;;;;9.00;7.00;;;;;11.72;41.54;99556.06;6273396;20;2731922;-46
2024/03/18 09:14:55;;;;;;;;;6.50;6.50;;;;;11.74;42.19;99554.09;6276540;20;2738802;-47
2024/03/18 09:17:21;;;;;;;;;12.50;8.50;;;;;11.86;42.43;99537.16;6275959;20;2771160;-48
2024/03/18 09:19:50;;;;;;;;;9.40;7.00;;;;;12.37;41.34;99547.91;6302714;20;2745557;-46
2024/03/18 09:22:16;;;;;;;;;8.00;8.00;;;;;12.03;41.82;99544.94;6314055;20;2748301;-47
2024/03/18 09:24:43;;;;;;;;;6.00;6.00;;;;;12.38;41.56;99543.41;6283932;20;2737794;-50
2024/03/18 09:27:13;;;;;;;;;6.29;6.29;;;;;12.34;41.68;99540.06;6336233;20;1794097;-48
2024/03/18 09:29:40;;;;;;;;;11.00;8.00;;;;;11.97;40.90;99537.28;6309957;20;2760691;-49
2024/03/18 09:32:08;;;;;;;;;9.67;9.67;;;;;12.40;40.71;99547.72;6279140;20;2776358;-49
2024/03/18 09:34:34;;;;;;;;;9.00;7.00;;;;;11.96;41.40;99524.81;6312072;20;2748274;-48
2024/03/18 09:37:03;;;;;;;;;6.20;6.20;;;;;12.51;40.22;99534.34;6308322;20;2739866;-49
2024/03/18 09:39:30;;;;;;;;;10.00;9.00;;;;;12.88;40.53;99530.81;6309134;20;2762806;-51
2024/03/18 09:41:56;;;;;;;;;6.50;6.50;;;;;12.35;40.96;99528.34;6284093;20;2737817;-46
2024/03/18 09:44:23;;;;;;;;;6.00;6.00;;;;;12.88;39.78;99531.66;6280063;20;2741334;-47
2024/03/18 09:46:50;;;;;;;;;6.00;5.00;;;;;12.06;40.30;99523.19;6280755;20;2745126;-48
2024/03/18 09:49:20;;;;;;;;;8.00;7.00;;;;;12.27;40.25;99530.72;6279176;20;2735694;-52
2024/03/18 09:51:48;;;;;;;;;18.00;15.67;;;;;12.86;42.04;99536.28;6277775;20;3555466;-48
2024/03/18 09:54:20;;;;;;;;;18.00;18.00;;;;;13.09;40.20;99521.13;6310606;20;3574058;-49
2024/03/18 09:57:09;;;;;;;;;5.80;5.80;;;;;12.63;39.92;99518.25;6336661;20;2739264;-46
2024/03/18 09:59:36;;;;;;;;;7.50;6.50;;;;;12.78;41.02;99517.16;6313528;20;2735785;-47
2024/03/18 10:02:02;;;;;;;;;8.00;8.00;;;;;12.31;41.57;99518.75;6279901;20;2736756;-49
2024/03/18 10:04:29;;;;;;;;;9.00;6.00;;;;;12.69;40.55;99515.09;6280400;20;2740055;-52
2024/03/18 10:06:56;;;;;;;;;7.50;6.50;;;;;12.90;40.92;99516.25;6279518;20;2753431;-48
2024/03/18 10:09:26;;;;;;;;;10.00;8.00;;;;;12.46;41.04;99509.56;6280553;20;2777432;-46
2024/03/18 10:11:52;;;;;;;;;7.00;7.00;;;;;11.87;40.50;99501.22;6282063;20;2729467;-47
2024/03/18 10:14:19;;;;;;;;;4.00;4.00;;;;;12.35;40.21;99506.81;6277987;20;2746094;-48
2024/03/18 10:16:46;;;;;;;;;6.50;6.50;;;;;12.12;40.82;99499.50;6282818;20;2740920;-51
2024/03/18 10:19:16;;;;;;;;;6.00;6.00;;;;;12.53;40.37;99504.59;6281903;20;2731599;-48
2024/03/18 10:21:42;;;;;;;;;6.00;6.00;;;;;12.46;39.67;99504.19;6279190;20;2744083;-53
2024/03/18 10:24:16;;;;;;;;;6.00;6.00;;;;;12.35;38.99;99490.66;6276194;20;2741066;-48
2024/03/18 10:26:46;;;;;;;;;6.50;5.50;;;;;12.06;39.78;99482.81;6282144;20;2744096;-46
2024/03/18 10:29:14;;;;;;;;;12.00;12.00;;;;;11.94;39.83;99477.44;6278063;20;2786854;-46
2024/03/18 10:31:40;;;;;;;;;8.00;7.00;;;;;12.75;38.65;99485.03;6312387;20;2735750;-47
2024/03/18 10:34:08;;;;;;;;;6.00;6.00;;;;;12.77;38.32;99480.41;6280040;20;2736831;-48
2024/03/18 10:36:39;;;;;;;;;5.57;5.29;;;;;13.29;38.40;99481.88;6319209;20;3452670;-47
2024/03/18 10:39:08;;;;;;;;;7.00;7.00;;;;;12.71;38.68;99486.22;6313581;20;2738915;-50
2024/03/18 10:41:39;;;;;;;;;32.33;28.67;;;;;12.88;38.54;99477.78;6276272;20;3598209;-48
2024/03/18 10:44:20;;;;;;;;;4.50;3.00;;;;;12.75;38.50;99482.34;6311961;20;2753444;-49
2024/03/18 10:46:47;;;;;;;;;6.50;6.50;;;;;12.95;37.15;99484.44;6281770;20;2738823;-51
2024/03/18 10:49:21;;;;;;;;;4.50;3.50;;;;;12.98;37.37;99486.03;6281120;20;2744043;-47
2024/03/18 10:51:49;;;;;;;;;8.50;6.00;;;;;12.94;39.08;99485.38;6278124;20;2744087;-49
2024/03/18 10:54:17;;;;;;;;;5.00;5.00;;;;;13.20;37.37;99479.88;6279308;20;2732611;-51
2024/03/18 10:56:48;;;;;;;;;6.00;6.00;;;;;12.77;38.41;99474.13;6279956;20;2734708;-46
2024/03/18 10:59:20;;;;;;;;;6.00;6.00;;;;;13.53;39.22;99463.00;6279403;20;2739884;-46
2024/03/18 11:01:48;;;;;;;;;4.00;4.00;;;;;13.46;37.40;99467.13;6279698;20;2740945;-48
2024/03/18 11:04:27;;;;;;;;;6.00;3.60;;;;;13.63;37.01;99463.13;6317978;20;2475306;-46
2024/03/18 11:06:56;;;;;;;;;5.20;5.20;;;;;13.14;37.29;99464.19;6335025;20;2731548;-49
2024/03/18 11:09:24;;;;;;;;;4.50;3.50;;;;;12.93;38.67;99464.81;6309955;20;2748207;-48
2024/03/18 11:11:51;;;;;;;;;4.50;4.50;;;;;13.02;36.93;99455.16;6280504;20;2747422;-49
2024/03/18 11:14:29;;;;;;;;;3.43;3.29;;;;;13.62;37.20;99450.63;6321408;20;3455490;-50
2024/03/18 11:16:57;;;;;;;;;5.00;4.00;;;;;13.26;36.79;99454.28;6309026;20;2748287;-49